sensor_id;sensor_type;location;lat;lon;timestamp;pressure;altitude;pressure_sealevel;temperature;humidity
53246;BME280;39569;51.090;-1.786;2023-07-13T00:00:46;100859.19;;;24.99;44.58
53246;BME280;39569;51.090;-1.786;2023-07-13T00:03:13;100862.72;;;24.90;44.79
53246;BME280;39569;51.090;-1.786;2023-07-13T00:05:41;100861.16;;;25.09;44.55
53246;BME280;39569;51.090;-1.786;2023-07-13T00:08:08;100864.16;;;25.02;44.23
53246;BME280;39569;51.090;-1.786;2023-07-13T00:10:39;100861.47;;;25.17;44.38
53246;BME280;39569;51.090;-1.786;2023-07-13T00:13:06;100872.91;;;25.04;44.64
53246;BME280;39569;51.090;-1.786;2023-07-13T00:15:33;100866.88;;;25.02;44.35
53246;BME280;39569;51.090;-1.786;2023-07-13T00:18:01;100870.94;;;24.95;44.87
53246;BME280;39569;51.090;-1.786;2023-07-13T00:20:27;100868.38;;;24.78;45.29
53246;BME280;39569;51.090;-1.786;2023-07-13T00:22:56;100873.75;;;25.10;44.72
53246;BME280;39569;51.090;-1.786;2023-07-13T00:25:23;100870.13;;;24.99;44.67
53246;BME280;39569;51.090;-1.786;2023-07-13T00:27:53;100868.50;;;24.98;44.64
53246;BME280;39569;51.090;-1.786;2023-07-13T00:30:21;100872.91;;;25.04;44.18
53246;BME280;39569;51.090;-1.786;2023-07-13T00:32:49;100869.03;;;24.95;44.33
53246;BME280;39569;51.090;-1.786;2023-07-13T00:35:16;100867.84;;;24.86;44.32
53246;BME280;39569;51.090;-1.786;2023-07-13T00:37:43;100861.34;;;24.92;44.64
53246;BME280;39569;51.090;-1.786;2023-07-13T00:40:13;100866.31;;;24.95;44.48
53246;BME280;39569;51.090;-1.786;2023-07-13T00:42:41;100864.91;;;24.93;44.09
53246;BME280;39569;51.090;-1.786;2023-07-13T00:48:17;100867.63;;;24.93;44.92
53246;BME280;39569;51.090;-1.786;2023-07-13T00:50:47;100870.72;;;25.06;44.36
53246;BME280;39569;51.090;-1.786;2023-07-13T00:53:15;100866.06;;;25.07;44.00
53246;BME280;39569;51.090;-1.786;2023-07-13T00:55:44;100846.63;;;25.03;44.05
53246;BME280;39569;51.090;-1.786;2023-07-13T00:58:11;100861.38;;;24.97;44.11
53246;BME280;39569;51.090;-1.786;2023-07-13T01:00:39;100859.06;;;24.74;44.46
53246;BME280;39569;51.090;-1.786;2023-07-13T01:03:06;100858.78;;;24.76;44.28
53246;BME280;39569;51.090;-1.786;2023-07-13T01:05:34;100858.59;;;24.87;44.37
53246;BME280;39569;51.090;-1.786;2023-07-13T01:08:02;100859.91;;;24.80;44.50
53246;BME280;39569;51.090;-1.786;2023-07-13T01:10:30;100861.78;;;24.74;44.26
53246;BME280;39569;51.090;-1.786;2023-07-13T01:13:06;100851.13;;;24.73;44.23
53246;BME280;39569;51.090;-1.786;2023-07-13T01:15:37;100856.88;;;24.71;44.41
53246;BME280;39569;51.090;-1.786;2023-07-13T01:18:06;100848.56;;;24.61;44.65
53246;BME280;39569;51.090;-1.786;2023-07-13T01:20:34;100858.66;;;24.61;44.40
53246;BME280;39569;51.090;-1.786;2023-07-13T01:23:05;100851.28;;;24.61;44.27
53246;BME280;39569;51.090;-1.786;2023-07-13T01:25:34;100847.16;;;24.54;44.70
53246;BME280;39569;51.090;-1.786;2023-07-13T01:28:01;100844.13;;;24.50;44.90
53246;BME280;39569;51.090;-1.786;2023-07-13T01:30:27;100849.97;;;24.27;45.31
53246;BME280;39569;51.090;-1.786;2023-07-13T01:32:54;100845.69;;;24.41;45.05
53246;BME280;39569;51.090;-1.786;2023-07-13T01:35:21;100851.72;;;24.43;45.04
53246;BME280;39569;51.090;-1.786;2023-07-13T01:37:48;100853.72;;;24.53;44.93
53246;BME280;39569;51.090;-1.786;2023-07-13T01:40:16;100854.59;;;24.63;44.44
53246;BME280;39569;51.090;-1.786;2023-07-13T01:42:43;100851.56;;;24.60;44.68
53246;BME280;39569;51.090;-1.786;2023-07-13T01:45:10;100853.03;;;24.35;45.07
53246;BME280;39569;51.090;-1.786;2023-07-13T01:47:37;100850.44;;;24.56;44.75
53246;BME280;39569;51.090;-1.786;2023-07-13T01:50:04;100842.78;;;24.53;44.67
53246;BME280;39569;51.090;-1.786;2023-07-13T01:52:31;100853.59;;;24.38;45.33
53246;BME280;39569;51.090;-1.786;2023-07-13T01:54:59;100843.50;;;24.38;45.03
53246;BME280;39569;51.090;-1.786;2023-07-13T01:57:27;100851.28;;;24.56;45.10
53246;BME280;39569;51.090;-1.786;2023-07-13T01:59:54;100852.16;;;24.67;44.57
53246;BME280;39569;51.090;-1.786;2023-07-13T02:02:21;100856.09;;;24.81;44.15
53246;BME280;39569;51.090;-1.786;2023-07-13T02:04:48;100854.63;;;24.68;43.95
53246;BME280;39569;51.090;-1.786;2023-07-13T02:07:14;100858.53;;;24.77;44.28
53246;BME280;39569;51.090;-1.786;2023-07-13T02:09:41;100854.34;;;24.70;44.21
53246;BME280;39569;51.090;-1.786;2023-07-13T02:12:08;100850.25;;;24.67;44.37
53246;BME280;39569;51.090;-1.786;2023-07-13T02:14:37;100852.34;;;24.55;44.52
53246;BME280;39569;51.090;-1.786;2023-07-13T02:17:04;100847.53;;;24.67;44.02
53246;BME280;39569;51.090;-1.786;2023-07-13T02:19:31;100846.13;;;24.65;44.09
53246;BME280;39569;51.090;-1.786;2023-07-13T02:21:58;100844.31;;;24.38;44.58
53246;BME280;39569;51.090;-1.786;2023-07-13T02:24:24;100846.69;;;24.25;45.39
53246;BME280;39569;51.090;-1.786;2023-07-13T02:26:52;100849.09;;;24.58;44.10
53246;BME280;39569;51.090;-1.786;2023-07-13T02:29:19;100847.72;;;24.61;44.21
53246;BME280;39569;51.090;-1.786;2023-07-13T02:31:47;100847.53;;;24.67;44.35
53246;BME280;39569;51.090;-1.786;2023-07-13T02:34:14;100836.00;;;24.60;44.06
53246;BME280;39569;51.090;-1.786;2023-07-13T02:36:40;100838.75;;;24.60;44.22
53246;BME280;39569;51.090;-1.786;2023-07-13T02:39:08;100844.78;;;24.67;43.56
53246;BME280;39569;51.090;-1.786;2023-07-13T02:41:35;100836.22;;;24.54;43.83
53246;BME280;39569;51.090;-1.786;2023-07-13T02:44:02;100837.31;;;24.53;43.94
53246;BME280;39569;51.090;-1.786;2023-07-13T02:46:29;100839.69;;;24.44;43.49
53246;BME280;39569;51.090;-1.786;2023-07-13T02:48:57;100841.06;;;24.42;43.59
53246;BME280;39569;51.090;-1.786;2023-07-13T02:51:24;100847.28;;;24.32;43.88
53246;BME280;39569;51.090;-1.786;2023-07-13T02:53:51;100841.22;;;24.25;43.83
53246;BME280;39569;51.090;-1.786;2023-07-13T02:56:18;100842.81;;;24.21;44.17
53246;BME280;39569;51.090;-1.786;2023-07-13T02:58:45;100843.25;;;24.08;44.35
53246;BME280;39569;51.090;-1.786;2023-07-13T03:01:12;100850.88;;;24.06;44.74
53246;BME280;39569;51.090;-1.786;2023-07-13T03:03:44;100850.16;;;24.15;44.50
53246;BME280;39569;51.090;-1.786;2023-07-13T03:06:14;100851.44;;;24.08;44.61
53246;BME280;39569;51.090;-1.786;2023-07-13T03:08:42;100853.13;;;24.14;44.52
53246;BME280;39569;51.090;-1.786;2023-07-13T03:11:12;100853.91;;;24.09;44.67
53246;BME280;39569;51.090;-1.786;2023-07-13T03:13:39;100849.78;;;24.07;44.73
53246;BME280;39569;51.090;-1.786;2023-07-13T03:16:07;100839.06;;;24.00;44.74
53246;BME280;39569;51.090;-1.786;2023-07-13T03:18:36;100840.41;;;23.98;45.03
53246;BME280;39569;51.090;-1.786;2023-07-13T03:21:03;100841.78;;;24.00;44.95
53246;BME280;39569;51.090;-1.786;2023-07-13T03:23:31;100842.06;;;23.99;45.16
53246;BME280;39569;51.090;-1.786;2023-07-13T03:26:03;100841.56;;;24.02;45.18
53246;BME280;39569;51.090;-1.786;2023-07-13T03:28:30;100842.66;;;24.01;45.31
53246;BME280;39569;51.090;-1.786;2023-07-13T03:31:01;100844.41;;;24.17;45.04
53246;BME280;39569;51.090;-1.786;2023-07-13T03:33:28;100847.69;;;24.14;45.24
53246;BME280;39569;51.090;-1.786;2023-07-13T03:35:55;100843.56;;;24.11;45.31
53246;BME280;39569;51.090;-1.786;2023-07-13T03:38:21;100848.53;;;24.19;44.95
53246;BME280;39569;51.090;-1.786;2023-07-13T03:40:50;100851.13;;;24.36;44.92
53246;BME280;39569;51.090;-1.786;2023-07-13T03:43:16;100849.63;;;24.18;45.19
53246;BME280;39569;51.090;-1.786;2023-07-13T03:45:43;100848.31;;;24.26;44.87
53246;BME280;39569;51.090;-1.786;2023-07-13T03:48:10;100852.34;;;24.18;44.81
53246;BME280;39569;51.090;-1.786;2023-07-13T03:50:37;100857.19;;;24.11;44.86
53246;BME280;39569;51.090;-1.786;2023-07-13T03:53:04;100856.94;;;24.13;44.94
53246;BME280;39569;51.090;-1.786;2023-07-13T03:55:31;100850.56;;;24.02;45.25
53246;BME280;39569;51.090;-1.786;2023-07-13T03:58:00;100851.22;;;24.14;45.32
53246;BME280;39569;51.090;-1.786;2023-07-13T04:00:27;100853.88;;;24.04;45.19
53246;BME280;39569;51.090;-1.786;2023-07-13T04:02:54;100849.28;;;24.10;45.17
53246;BME280;39569;51.090;-1.786;2023-07-13T04:05:20;100853.56;;;24.01;45.41
53246;BME280;39569;51.090;-1.786;2023-07-13T04:07:47;100856.69;;;23.88;45.64
53246;BME280;39569;51.090;-1.786;2023-07-13T04:10:14;100852.91;;;23.94;45.48
53246;BME280;39569;51.090;-1.786;2023-07-13T04:12:41;100862.66;;;23.85;45.79
53246;BME280;39569;51.090;-1.786;2023-07-13T04:15:09;100852.09;;;23.93;45.64
53246;BME280;39569;51.090;-1.786;2023-07-13T04:17:36;100852.53;;;23.80;45.90
53246;BME280;39569;51.090;-1.786;2023-07-13T04:20:03;100861.56;;;23.86;45.56
53246;BME280;39569;51.090;-1.786;2023-07-13T04:22:30;100863.59;;;23.95;45.22
53246;BME280;39569;51.090;-1.786;2023-07-13T04:24:57;100862.19;;;23.93;45.26
53246;BME280;39569;51.090;-1.786;2023-07-13T04:27:24;100861.56;;;23.86;45.37
53246;BME280;39569;51.090;-1.786;2023-07-13T04:29:51;100869.28;;;23.94;45.06
53246;BME280;39569;51.090;-1.786;2023-07-13T04:32:19;100871.50;;;23.97;45.08
53246;BME280;39569;51.090;-1.786;2023-07-13T04:34:45;100870.97;;;24.00;45.01
53246;BME280;39569;51.090;-1.786;2023-07-13T04:37:12;100873.84;;;24.10;44.90
53246;BME280;39569;51.090;-1.786;2023-07-13T04:39:39;100872.72;;;24.06;45.27
53246;BME280;39569;51.090;-1.786;2023-07-13T04:42:06;100874.03;;;24.03;45.15
53246;BME280;39569;51.090;-1.786;2023-07-13T04:44:33;100882.84;;;24.10;45.33
53246;BME280;39569;51.090;-1.786;2023-07-13T04:46:59;100884.41;;;24.01;45.48
53246;BME280;39569;51.090;-1.786;2023-07-13T04:49:27;100885.03;;;24.08;45.55
53246;BME280;39569;51.090;-1.786;2023-07-13T04:51:54;100884.19;;;24.08;45.52
53246;BME280;39569;51.090;-1.786;2023-07-13T04:54:21;100883.63;;;24.06;45.67
53246;BME280;39569;51.090;-1.786;2023-07-13T04:56:48;100893.00;;;24.15;45.58
53246;BME280;39569;51.090;-1.786;2023-07-13T04:59:14;100886.53;;;23.99;46.05
53246;BME280;39569;51.090;-1.786;2023-07-13T05:01:41;100885.13;;;23.92;46.34
53246;BME280;39569;51.090;-1.786;2023-07-13T05:04:08;100890.00;;;23.90;46.83
53246;BME280;39569;51.090;-1.786;2023-07-13T05:06:36;100889.72;;;24.18;46.44
53246;BME280;39569;51.090;-1.786;2023-07-13T05:09:03;100894.47;;;24.27;45.93
53246;BME280;39569;51.090;-1.786;2023-07-13T05:11:29;100892.59;;;24.33;46.13
53246;BME280;39569;51.090;-1.786;2023-07-13T05:13:56;100890.53;;;24.45;45.58
53246;BME280;39569;51.090;-1.786;2023-07-13T05:16:23;100893.66;;;24.64;45.43
53246;BME280;39569;51.090;-1.786;2023-07-13T05:18:50;100889.34;;;24.04;46.71
53246;BME280;39569;51.090;-1.786;2023-07-13T05:21:16;100895.88;;;24.35;46.41
53246;BME280;39569;51.090;-1.786;2023-07-13T05:23:45;100892.25;;;24.56;45.80
53246;BME280;39569;51.090;-1.786;2023-07-13T05:26:11;100886.09;;;24.71;45.92
53246;BME280;39569;51.090;-1.786;2023-07-13T05:28:39;100890.09;;;25.00;45.25
53246;BME280;39569;51.090;-1.786;2023-07-13T05:31:07;100894.25;;;25.12;45.02
53246;BME280;39569;51.090;-1.786;2023-07-13T05:33:34;100887.72;;;25.18;45.15
53246;BME280;39569;51.090;-1.786;2023-07-13T05:36:01;100893.50;;;25.27;44.71
53246;BME280;39569;51.090;-1.786;2023-07-13T05:38:28;100894.16;;;25.44;45.14
53246;BME280;39569;51.090;-1.786;2023-07-13T05:40:56;100885.03;;;25.28;45.04
53246;BME280;39569;51.090;-1.786;2023-07-13T05:43:24;100895.28;;;25.53;44.62
53246;BME280;39569;51.090;-1.786;2023-07-13T05:45:52;100887.38;;;25.62;44.62
53246;BME280;39569;51.090;-1.786;2023-07-13T05:48:19;100892.81;;;25.57;45.10
53246;BME280;39569;51.090;-1.786;2023-07-13T05:50:46;100891.75;;;25.63;45.24
53246;BME280;39569;51.090;-1.786;2023-07-13T05:53:12;100901.84;;;25.47;45.32
53246;BME280;39569;51.090;-1.786;2023-07-13T05:55:41;100903.53;;;25.68;44.68
53246;BME280;39569;51.090;-1.786;2023-07-13T05:58:09;100908.50;;;25.76;44.05
53246;BME280;39569;51.090;-1.786;2023-07-13T06:00:36;100912.63;;;25.89;43.75
53246;BME280;39569;51.090;-1.786;2023-07-13T06:03:03;100915.38;;;25.99;43.92
53246;BME280;39569;51.090;-1.786;2023-07-13T06:05:32;100917.09;;;26.25;44.03
53246;BME280;39569;51.090;-1.786;2023-07-13T06:07:59;100925.28;;;26.15;43.63
53246;BME280;39569;51.090;-1.786;2023-07-13T06:10:26;100926.97;;;26.36;43.14
53246;BME280;39569;51.090;-1.786;2023-07-13T06:12:53;100924.47;;;26.50;42.92
53246;BME280;39569;51.090;-1.786;2023-07-13T06:15:21;100921.75;;;26.65;42.72
53246;BME280;39569;51.090;-1.786;2023-07-13T06:17:48;100931.06;;;26.59;42.85
53246;BME280;39569;51.090;-1.786;2023-07-13T06:20:15;100932.84;;;25.78;44.04
53246;BME280;39569;51.090;-1.786;2023-07-13T06:22:42;100939.56;;;26.57;43.03
53246;BME280;39569;51.090;-1.786;2023-07-13T06:25:09;100942.28;;;26.42;43.38
53246;BME280;39569;51.090;-1.786;2023-07-13T06:27:35;100946.13;;;26.66;43.21
53246;BME280;39569;51.090;-1.786;2023-07-13T06:30:02;100951.38;;;26.73;43.39
53246;BME280;39569;51.090;-1.786;2023-07-13T06:32:31;100949.44;;;26.58;43.55
53246;BME280;39569;51.090;-1.786;2023-07-13T06:34:58;100954.31;;;26.11;44.49
53246;BME280;39569;51.090;-1.786;2023-07-13T06:37:24;100953.81;;;26.34;44.20
53246;BME280;39569;51.090;-1.786;2023-07-13T06:39:51;100950.44;;;25.97;44.29
53246;BME280;39569;51.090;-1.786;2023-07-13T06:42:18;100953.06;;;25.72;44.80
53246;BME280;39569;51.090;-1.786;2023-07-13T06:44:45;100963.09;;;26.33;44.14
53246;BME280;39569;51.090;-1.786;2023-07-13T06:47:11;100965.88;;;26.63;44.04
53246;BME280;39569;51.090;-1.786;2023-07-13T06:49:39;100962.59;;;26.91;43.20
53246;BME280;39569;51.090;-1.786;2023-07-13T06:52:06;100968.56;;;27.18;42.98
53246;BME280;39569;51.090;-1.786;2023-07-13T06:54:33;100968.31;;;27.10;43.12
53246;BME280;39569;51.090;-1.786;2023-07-13T06:57:00;100974.31;;;27.22;42.44
53246;BME280;39569;51.090;-1.786;2023-07-13T06:59:27;100972.13;;;27.14;42.49
53246;BME280;39569;51.090;-1.786;2023-07-13T07:01:54;100982.59;;;26.72;43.50
53246;BME280;39569;51.090;-1.786;2023-07-13T07:04:20;100981.78;;;26.81;43.43
53246;BME280;39569;51.090;-1.786;2023-07-13T07:06:49;100977.06;;;27.37;42.80
53246;BME280;39569;51.090;-1.786;2023-07-13T07:09:15;100990.53;;;27.08;43.36
53246;BME280;39569;51.090;-1.786;2023-07-13T07:11:42;100991.31;;;27.24;43.63
53246;BME280;39569;51.090;-1.786;2023-07-13T07:14:09;100985.25;;;27.42;43.13
53246;BME280;39569;51.090;-1.786;2023-07-13T07:16:36;100989.75;;;26.93;43.60
53246;BME280;39569;51.090;-1.786;2023-07-13T07:19:03;100997.38;;;26.56;44.33
53246;BME280;39569;51.090;-1.786;2023-07-13T07:21:29;101004.22;;;27.18;42.88
53246;BME280;39569;51.090;-1.786;2023-07-13T07:23:58;101003.44;;;27.08;43.35
53246;BME280;39569;51.090;-1.786;2023-07-13T07:26:25;101001.78;;;27.12;43.59
53246;BME280;39569;51.090;-1.786;2023-07-13T07:28:52;101006.16;;;27.23;43.40
53246;BME280;39569;51.090;-1.786;2023-07-13T07:31:18;101007.75;;;27.29;43.27
53246;BME280;39569;51.090;-1.786;2023-07-13T07:33:45;101006.41;;;27.37;43.48
53246;BME280;39569;51.090;-1.786;2023-07-13T07:36:12;101012.50;;;26.78;43.70
53246;BME280;39569;51.090;-1.786;2023-07-13T07:38:39;101005.59;;;26.61;44.13
53246;BME280;39569;51.090;-1.786;2023-07-13T07:41:07;101014.13;;;27.09;43.73
53246;BME280;39569;51.090;-1.786;2023-07-13T07:43:34;101012.72;;;27.47;43.29
53246;BME280;39569;51.090;-1.786;2023-07-13T07:46:02;101008.84;;;27.53;42.99
53246;BME280;39569;51.090;-1.786;2023-07-13T07:48:29;101011.63;;;27.38;43.38
53246;BME280;39569;51.090;-1.786;2023-07-13T07:50:55;101012.88;;;27.76;42.96
53246;BME280;39569;51.090;-1.786;2023-07-13T07:53:22;101011.56;;;27.63;42.79
53246;BME280;39569;51.090;-1.786;2023-07-13T07:55:49;101015.38;;;27.72;42.81
53246;BME280;39569;51.090;-1.786;2023-07-13T07:58:17;101016.38;;;27.86;42.73
53246;BME280;39569;51.090;-1.786;2023-07-13T08:00:44;101009.53;;;27.89;42.28
53246;BME280;39569;51.090;-1.786;2023-07-13T08:03:11;101019.06;;;27.17;43.63
53246;BME280;39569;51.090;-1.786;2023-07-13T08:05:38;101013.28;;;27.34;43.53
53246;BME280;39569;51.090;-1.786;2023-07-13T08:08:04;101005.91;;;26.99;43.34
53246;BME280;39569;51.090;-1.786;2023-07-13T08:10:31;101003.56;;;27.72;42.40
53246;BME280;39569;51.090;-1.786;2023-07-13T08:12:58;101002.66;;;27.86;42.17
53246;BME280;39569;51.090;-1.786;2023-07-13T08:15:26;101002.66;;;27.91;41.90
53246;BME280;39569;51.090;-1.786;2023-07-13T08:17:53;101008.88;;;27.33;42.58
53246;BME280;39569;51.090;-1.786;2023-07-13T08:20:20;101000.38;;;28.08;41.71
53246;BME280;39569;51.090;-1.786;2023-07-13T08:22:47;101004.31;;;28.41;40.68
53246;BME280;39569;51.090;-1.786;2023-07-13T08:25:14;101002.66;;;28.79;40.88
53246;BME280;39569;51.090;-1.786;2023-07-13T08:27:41;100991.03;;;28.53;41.10
53246;BME280;39569;51.090;-1.786;2023-07-13T08:30:08;100998.03;;;28.36;41.52
53246;BME280;39569;51.090;-1.786;2023-07-13T08:32:37;100990.47;;;28.90;40.67
53246;BME280;39569;51.090;-1.786;2023-07-13T08:35:05;100994.66;;;29.11;41.68
53246;BME280;39569;51.090;-1.786;2023-07-13T08:37:32;100997.53;;;29.53;40.31
53246;BME280;39569;51.090;-1.786;2023-07-13T08:39:58;100988.91;;;29.07;40.00
53246;BME280;39569;51.090;-1.786;2023-07-13T08:42:36;100993.06;;;28.76;40.76
53246;BME280;39569;51.090;-1.786;2023-07-13T08:45:17;100991.97;;;29.35;39.22
53246;BME280;39569;51.090;-1.786;2023-07-13T08:47:53;100998.16;;;28.93;39.84
53246;BME280;39569;51.090;-1.786;2023-07-13T08:50:25;100995.69;;;28.91;39.77
53246;BME280;39569;51.090;-1.786;2023-07-13T08:52:54;100997.38;;;29.45;38.81
53246;BME280;39569;51.090;-1.786;2023-07-13T08:55:25;100998.75;;;29.71;38.15
53246;BME280;39569;51.090;-1.786;2023-07-13T08:57:59;101002.97;;;29.35;38.32
53246;BME280;39569;51.090;-1.786;2023-07-13T09:00:45;101004.72;;;29.26;39.17
53246;BME280;39569;51.090;-1.786;2023-07-13T09:03:20;101003.34;;;28.94;38.46
53246;BME280;39569;51.090;-1.786;2023-07-13T09:05:53;100998.88;;;28.70;39.26
53246;BME280;39569;51.090;-1.786;2023-07-13T09:08:34;100998.06;;;29.32;38.57
53246;BME280;39569;51.090;-1.786;2023-07-13T09:11:11;100993.91;;;29.05;38.61
53246;BME280;39569;51.090;-1.786;2023-07-13T09:13:49;100991.94;;;28.77;38.52
53246;BME280;39569;51.090;-1.786;2023-07-13T09:16:18;100995.81;;;28.76;38.40
53246;BME280;39569;51.090;-1.786;2023-07-13T09:18:49;100996.16;;;28.98;38.53
53246;BME280;39569;51.090;-1.786;2023-07-13T09:21:20;100990.31;;;29.05;38.79
53246;BME280;39569;51.090;-1.786;2023-07-13T09:23:50;100991.97;;;29.35;37.94
53246;BME280;39569;51.090;-1.786;2023-07-13T09:26:21;100986.34;;;29.45;38.56
53246;BME280;39569;51.090;-1.786;2023-07-13T09:28:51;100991.03;;;29.21;37.63
53246;BME280;39569;51.090;-1.786;2023-07-13T09:31:24;100991.34;;;29.43;38.03
53246;BME280;39569;51.090;-1.786;2023-07-13T09:33:54;100985.50;;;29.73;38.14
53246;BME280;39569;51.090;-1.786;2023-07-13T09:36:24;100986.13;;;30.07;37.75
53246;BME280;39569;51.090;-1.786;2023-07-13T09:38:59;100994.31;;;30.12;37.49
53246;BME280;39569;51.090;-1.786;2023-07-13T09:41:36;100992.28;;;30.41;36.75
53246;BME280;39569;51.090;-1.786;2023-07-13T09:44:08;100991.53;;;29.75;37.21
53246;BME280;39569;51.090;-1.786;2023-07-13T09:46:36;100991.16;;;29.58;38.36
53246;BME280;39569;51.090;-1.786;2023-07-13T09:49:05;100989.50;;;29.57;37.63
53246;BME280;39569;51.090;-1.786;2023-07-13T09:51:31;100999.81;;;29.46;38.34
53246;BME280;39569;51.090;-1.786;2023-07-13T09:53:58;100993.63;;;29.83;37.47
53246;BME280;39569;51.090;-1.786;2023-07-13T09:56:27;100998.31;;;29.82;36.71
53246;BME280;39569;51.090;-1.786;2023-07-13T09:58:56;100992.50;;;30.45;36.61
53246;BME280;39569;51.090;-1.786;2023-07-13T10:01:34;101001.66;;;29.79;36.41
53246;BME280;39569;51.090;-1.786;2023-07-13T10:04:01;101000.78;;;30.26;36.55
53246;BME280;39569;51.090;-1.786;2023-07-13T10:06:30;100993.22;;;29.47;36.38
53246;BME280;39569;51.090;-1.786;2023-07-13T10:08:57;100987.91;;;30.17;36.12
53246;BME280;39569;51.090;-1.786;2023-07-13T10:11:27;101000.50;;;29.57;36.42
53246;BME280;39569;51.090;-1.786;2023-07-13T10:13:57;101000.69;;;31.01;35.33
53246;BME280;39569;51.090;-1.786;2023-07-13T10:16:26;100996.78;;;30.88;35.31
53246;BME280;39569;51.090;-1.786;2023-07-13T10:19:00;100993.72;;;30.71;35.62
53246;BME280;39569;51.090;-1.786;2023-07-13T10:21:33;100997.16;;;30.81;35.40
53246;BME280;39569;51.090;-1.786;2023-07-13T10:24:05;100994.72;;;31.53;33.80
53246;BME280;39569;51.090;-1.786;2023-07-13T10:26:36;100996.88;;;30.27;35.02
53246;BME280;39569;51.090;-1.786;2023-07-13T10:29:10;100999.25;;;30.15;34.86
53246;BME280;39569;51.090;-1.786;2023-07-13T10:31:39;100997.53;;;30.00;35.62
53246;BME280;39569;51.090;-1.786;2023-07-13T10:34:09;101007.34;;;29.07;36.35
53246;BME280;39569;51.090;-1.786;2023-07-13T10:36:40;101003.50;;;29.08;37.11
53246;BME280;39569;51.090;-1.786;2023-07-13T10:39:13;101006.16;;;28.56;38.99
53246;BME280;39569;51.090;-1.786;2023-07-13T10:41:42;101006.00;;;30.04;36.93
53246;BME280;39569;51.090;-1.786;2023-07-13T10:44:18;101009.91;;;30.40;36.85
53246;BME280;39569;51.090;-1.786;2023-07-13T10:46:47;101004.06;;;31.11;36.08
53246;BME280;39569;51.090;-1.786;2023-07-13T10:49:15;101000.06;;;31.04;35.07
53246;BME280;39569;51.090;-1.786;2023-07-13T10:51:44;101011.66;;;31.19;34.69
53246;BME280;39569;51.090;-1.786;2023-07-13T10:54:16;101007.19;;;30.91;36.04
53246;BME280;39569;51.090;-1.786;2023-07-13T10:56:44;101010.09;;;31.13;35.08
53246;BME280;39569;51.090;-1.786;2023-07-13T10:59:14;100997.34;;;30.53;37.07
53246;BME280;39569;51.090;-1.786;2023-07-13T11:01:52;101000.81;;;31.23;36.17
53246;BME280;39569;51.090;-1.786;2023-07-13T11:04:22;100997.41;;;30.29;35.37
53246;BME280;39569;51.090;-1.786;2023-07-13T11:06:53;100993.41;;;31.37;33.75
53246;BME280;39569;51.090;-1.786;2023-07-13T11:09:33;100992.00;;;30.93;33.49
53246;BME280;39569;51.090;-1.786;2023-07-13T11:12:06;100993.25;;;29.66;35.67
53246;BME280;39569;51.090;-1.786;2023-07-13T11:14:35;100997.06;;;30.68;34.30
53246;BME280;39569;51.090;-1.786;2023-07-13T11:17:36;100997.69;;;30.46;34.73
53246;BME280;39569;51.090;-1.786;2023-07-13T11:20:20;100997.47;;;30.43;33.01
53246;BME280;39569;51.090;-1.786;2023-07-13T11:22:52;101000.47;;;29.09;35.25
53246;BME280;39569;51.090;-1.786;2023-07-13T11:25:27;101005.84;;;30.14;33.54
53246;BME280;39569;51.090;-1.786;2023-07-13T11:28:04;100999.91;;;30.26;33.51
53246;BME280;39569;51.090;-1.786;2023-07-13T11:30:35;100999.34;;;29.86;34.08
53246;BME280;39569;51.090;-1.786;2023-07-13T11:33:09;101000.22;;;30.43;33.31
53246;BME280;39569;51.090;-1.786;2023-07-13T11:35:50;101025.91;;;28.96;37.42
53246;BME280;39569;51.090;-1.786;2023-07-13T11:38:21;101022.44;;;29.67;36.76
53246;BME280;39569;51.090;-1.786;2023-07-13T11:40:51;101025.97;;;28.53;39.10
53246;BME280;39569;51.090;-1.786;2023-07-13T11:43:20;101020.63;;;27.64;41.97
53246;BME280;39569;51.090;-1.786;2023-07-13T11:45:49;101019.66;;;28.03;42.27
53246;BME280;39569;51.090;-1.786;2023-07-13T11:48:20;101025.19;;;27.83;42.76
53246;BME280;39569;51.090;-1.786;2023-07-13T11:50:56;101013.81;;;28.64;42.60
53246;BME280;39569;51.090;-1.786;2023-07-13T11:53:27;101009.75;;;28.07;41.51
53246;BME280;39569;51.090;-1.786;2023-07-13T11:55:55;101011.31;;;28.96;41.28
53246;BME280;39569;51.090;-1.786;2023-07-13T11:58:24;101010.66;;;28.80;42.40
53246;BME280;39569;51.090;-1.786;2023-07-13T12:00:55;101009.84;;;29.37;41.40
53246;BME280;39569;51.090;-1.786;2023-07-13T12:03:25;101002.56;;;29.75;40.97
53246;BME280;39569;51.090;-1.786;2023-07-13T12:05:56;101011.19;;;29.40;40.33
53246;BME280;39569;51.090;-1.786;2023-07-13T12:08:25;101010.78;;;29.51;39.88
53246;BME280;39569;51.090;-1.786;2023-07-13T12:11:05;100994.50;;;30.39;40.14
53246;BME280;39569;51.090;-1.786;2023-07-13T12:13:36;100994.25;;;31.05;37.78
53246;BME280;39569;51.090;-1.786;2023-07-13T12:16:12;100993.94;;;31.07;36.78
53246;BME280;39569;51.090;-1.786;2023-07-13T12:18:42;100986.44;;;32.43;35.24
53246;BME280;39569;51.090;-1.786;2023-07-13T12:21:13;100980.78;;;31.71;34.68
53246;BME280;39569;51.090;-1.786;2023-07-13T12:23:44;100973.00;;;33.25;34.41
53246;BME280;39569;51.090;-1.786;2023-07-13T12:26:12;100968.63;;;33.41;33.66
53246;BME280;39569;51.090;-1.786;2023-07-13T12:28:46;100965.09;;;34.05;32.75
53246;BME280;39569;51.090;-1.786;2023-07-13T12:31:32;100958.28;;;33.16;31.74
53246;BME280;39569;51.090;-1.786;2023-07-13T12:34:02;100960.63;;;31.98;33.85
53246;BME280;39569;51.090;-1.786;2023-07-13T12:36:34;100972.28;;;31.27;36.07
53246;BME280;39569;51.090;-1.786;2023-07-13T12:39:12;100969.38;;;30.91;35.07
53246;BME280;39569;51.090;-1.786;2023-07-13T12:41:39;100971.28;;;30.59;35.04
53246;BME280;39569;51.090;-1.786;2023-07-13T12:44:10;100978.25;;;30.19;36.65
53246;BME280;39569;51.090;-1.786;2023-07-13T12:46:38;100971.66;;;29.78;36.00
53246;BME280;39569;51.090;-1.786;2023-07-13T12:49:06;100987.50;;;29.39;36.57
53246;BME280;39569;51.090;-1.786;2023-07-13T12:51:34;100998.75;;;28.85;38.97